createdAt,value
2019-05-13T00:02:15.360Z,59.19
2019-05-13T00:04:44.983Z,59.92
2019-05-13T00:07:14.641Z,60.15
2019-05-13T00:09:44.388Z,60.41
2019-05-13T00:12:14.004Z,60.30
2019-05-13T00:14:43.966Z,60.44
2019-05-13T00:17:14.552Z,59.75
2019-05-13T00:19:44.458Z,59.70
2019-05-13T00:22:14.251Z,59.91
2019-05-13T00:24:44.423Z,60.30
2019-05-13T00:27:14.239Z,60.43
2019-05-13T00:29:44.419Z,60.09
2019-05-13T00:32:14.360Z,60.16
2019-05-13T00:34:44.632Z,59.80
2019-05-13T00:37:14.795Z,60.53
2019-05-13T00:39:44.676Z,61.04
2019-05-13T00:42:14.379Z,60.68
2019-05-13T00:44:44.470Z,60.85
2019-05-13T00:47:14.365Z,61.12
2019-05-13T00:49:44.007Z,60.90
2019-05-13T00:52:14.303Z,61.56
2019-05-13T00:54:44.277Z,61.75
2019-05-13T00:57:14.003Z,61.43
2019-05-13T00:59:44.399Z,61.76
2019-05-13T01:02:14.170Z,61.38
2019-05-13T01:04:44.257Z,61.71
2019-05-13T01:07:25.285Z,62.35
2019-05-13T01:09:45.369Z,62.10
2019-05-13T01:12:15.090Z,61.56
2019-05-13T01:14:44.702Z,61.97
2019-05-13T01:17:14.473Z,62.10
2019-05-13T01:19:44.090Z,62.27
2019-05-13T01:22:13.727Z,63.25
2019-05-13T01:24:44.134Z,62.75
2019-05-13T01:27:14.149Z,62.61
2019-05-13T01:29:43.923Z,62.73
2019-05-13T01:32:14.406Z,62.94
2019-05-13T01:34:44.461Z,62.58
2019-05-13T01:37:14.171Z,63.12
2019-05-13T01:39:43.902Z,63.02
2019-05-13T01:42:13.875Z,63.47
2019-05-13T01:44:43.878Z,63.45
2019-05-13T01:47:13.569Z,63.33
2019-05-13T01:49:44.023Z,64.07
2019-05-13T01:52:14.000Z,63.96
2019-05-13T01:54:44.286Z,63.93
2019-05-13T01:57:14.380Z,64.21
2019-05-13T01:59:44.092Z,64.78
2019-05-13T02:02:13.942Z,64.96
2019-05-13T02:04:44.024Z,64.82
2019-05-13T02:07:14.451Z,64.60
2019-05-13T02:09:44.559Z,64.51
2019-05-13T02:12:14.264Z,63.68
2019-05-13T02:14:44.471Z,64.33
2019-05-13T02:17:14.730Z,65.23
2019-05-13T02:19:44.368Z,64.42
2019-05-13T02:22:14.714Z,64.65
2019-05-13T02:24:44.749Z,64.30
2019-05-13T02:27:14.782Z,64.74
2019-05-13T02:29:44.862Z,64.50
2019-05-13T02:32:14.493Z,64.65
2019-05-13T02:34:44.151Z,64.35
2019-05-13T02:37:14.078Z,64.85
2019-05-13T02:39:43.735Z,64.51
2019-05-13T02:42:13.565Z,64.56
2019-05-13T02:44:43.838Z,64.76
2019-05-13T02:47:13.669Z,65.16
2019-05-13T02:49:43.375Z,64.11
2019-05-13T02:52:13.543Z,63.96
2019-05-13T02:54:43.395Z,64.12
2019-05-13T02:57:13.031Z,64.45
2019-05-13T02:59:42.768Z,64.42
2019-05-13T03:02:12.707Z,64.07
2019-05-13T03:04:43.363Z,63.61
2019-05-13T03:07:13.298Z,64.34
2019-05-13T03:09:42.912Z,64.58
2019-05-13T03:12:13.329Z,64.98
2019-05-13T03:14:47.964Z,63.79
2019-05-13T03:17:22.049Z,63.87
2019-05-13T03:19:53.073Z,64.81
2019-05-13T03:22:22.521Z,65.52
2019-05-13T03:24:52.633Z,65.32
2019-05-13T03:27:25.138Z,64.94
2019-05-13T03:29:53.775Z,65.31
2019-05-13T03:32:26.175Z,65.37
2019-05-13T03:34:56.702Z,65.64
2019-05-13T03:37:27.462Z,65.55
2019-05-13T03:39:58.575Z,65.69
2019-05-13T03:42:33.557Z,65.14
2019-05-13T03:45:05.510Z,65.60
2019-05-13T03:47:37.619Z,66.12
2019-05-13T03:50:08.572Z,65.09
2019-05-13T03:52:38.201Z,65.65
2019-05-13T03:55:12.812Z,65.39
2019-05-13T03:57:42.624Z,65.54
2019-05-13T04:00:13.467Z,65.71
2019-05-13T04:02:43.738Z,66.25
2019-05-13T04:05:13.804Z,65.39
2019-05-13T04:07:43.734Z,65.69
2019-05-13T04:10:14.193Z,65.98
2019-05-13T04:12:43.880Z,66.53
2019-05-13T04:15:14.999Z,65.90
2019-05-13T04:17:44.775Z,65.33
2019-05-13T04:20:14.735Z,66.19
2019-05-13T04:22:44.499Z,66.13
2019-05-13T04:25:14.348Z,66.37
2019-05-13T04:27:44.436Z,66.67
2019-05-13T04:30:14.761Z,66.29
2019-05-13T04:32:44.544Z,65.63
2019-05-13T04:35:14.367Z,65.75
2019-05-13T04:37:44.202Z,66.22
2019-05-13T04:40:14.133Z,66.00
2019-05-13T04:42:44.101Z,66.01
2019-05-13T04:45:14.122Z,66.17
2019-05-13T04:47:43.825Z,66.20
2019-05-13T04:50:13.879Z,66.58
2019-05-13T04:52:43.685Z,65.95
2019-05-13T04:55:13.526Z,64.50
2019-05-13T04:57:44.374Z,64.54
2019-05-13T05:00:14.723Z,64.96
2019-05-13T05:02:57.558Z,64.84
2019-05-13T05:05:37.746Z,65.64
2019-05-13T05:08:17.583Z,66.10
2019-05-13T05:11:14.769Z,65.87
2019-05-13T05:14:17.634Z,66.13
2019-05-13T05:17:19.170Z,65.36
2019-05-13T05:20:17.646Z,66.33
2019-05-13T05:23:14.210Z,66.23
2019-05-13T05:25:57.403Z,65.79
2019-05-13T05:28:52.020Z,65.99
2019-05-13T05:31:46.739Z,65.86
2019-05-13T05:34:47.945Z,66.25
2019-05-13T05:37:27.979Z,66.69
2019-05-13T05:40:01.750Z,66.39
2019-05-13T05:42:34.822Z,65.24
2019-05-13T05:45:06.836Z,65.44
2019-05-13T05:47:41.758Z,64.79
2019-05-13T05:50:12.299Z,62.96
2019-05-13T05:52:44.047Z,64.12
2019-05-13T05:55:13.802Z,62.81
2019-05-13T05:57:43.797Z,60.04
2019-05-13T06:00:13.989Z,63.32
2019-05-13T06:02:47.207Z,60.78
2019-05-13T06:05:16.964Z,59.24
2019-05-13T06:07:46.887Z,61.54
2019-05-13T06:10:17.444Z,61.48
2019-05-13T06:12:47.614Z,59.90
2019-05-13T06:15:17.395Z,61.64
2019-05-13T06:17:47.090Z,61.34
2019-05-13T06:20:16.875Z,61.40
2019-05-13T06:22:46.630Z,60.69
2019-05-13T06:25:16.375Z,59.95
2019-05-13T06:27:46.052Z,59.36
2019-05-13T06:30:15.805Z,59.14
2019-05-13T06:32:45.831Z,57.23
2019-05-13T06:35:15.513Z,59.26
2019-05-13T06:37:45.360Z,58.43
2019-05-13T06:40:15.185Z,57.49
2019-05-13T06:42:44.827Z,57.17
2019-05-13T06:45:14.646Z,58.43
2019-05-13T06:47:44.289Z,56.99
2019-05-13T06:50:14.116Z,58.10
2019-05-13T06:52:43.877Z,57.58
2019-05-13T06:55:13.870Z,56.96
2019-05-13T06:57:43.487Z,57.79
2019-05-13T07:00:13.734Z,56.53
2019-05-13T07:02:43.489Z,61.04
2019-05-13T07:05:13.284Z,57.51
2019-05-13T07:07:42.899Z,58.89
2019-05-13T07:10:13.128Z,57.39
2019-05-13T07:12:42.797Z,57.29
2019-05-13T07:15:12.848Z,55.83
2019-05-13T07:17:42.481Z,56.46
2019-05-13T07:20:13.037Z,57.09
2019-05-13T07:22:42.722Z,56.28
2019-05-13T07:25:12.671Z,59.52
2019-05-13T07:27:42.578Z,56.20
2019-05-13T07:30:13.479Z,56.89
2019-05-13T07:32:43.182Z,55.02
2019-05-13T07:35:14.666Z,57.35
2019-05-13T07:37:44.681Z,56.61
2019-05-13T07:40:14.720Z,55.35
2019-05-13T07:42:44.349Z,57.31
2019-05-13T07:45:14.156Z,55.69
2019-05-13T07:47:43.771Z,56.63
2019-05-13T07:50:13.809Z,55.47
2019-05-13T07:52:43.459Z,53.79
2019-05-13T07:55:14.966Z,54.47
2019-05-13T07:57:44.610Z,54.92
2019-05-13T08:00:14.943Z,54.37
2019-05-13T08:02:44.667Z,53.70
2019-05-13T08:05:15.995Z,53.87
2019-05-13T08:07:45.895Z,52.52
2019-05-13T08:10:16.224Z,52.71
2019-05-13T08:12:45.990Z,52.52
2019-05-13T08:15:16.370Z,52.30
2019-05-13T08:17:47.672Z,52.45
2019-05-13T08:20:17.779Z,52.64
2019-05-13T08:22:47.393Z,51.39
2019-05-13T08:25:17.043Z,51.35
2019-05-13T08:27:46.665Z,51.24
2019-05-13T08:30:18.231Z,51.37
2019-05-13T08:32:48.207Z,48.12
2019-05-13T08:35:17.878Z,50.04
2019-05-13T08:37:47.498Z,49.39
2019-05-13T08:40:20.160Z,47.92
2019-05-13T08:42:49.010Z,48.30
2019-05-13T08:45:18.767Z,49.78
2019-05-13T08:47:48.424Z,47.50
2019-05-13T08:50:18.287Z,49.04
2019-05-13T08:52:48.376Z,48.83
2019-05-13T08:55:21.222Z,49.25
2019-05-13T08:57:53.147Z,47.87
2019-05-13T09:00:44.953Z,47.61
2019-05-13T09:03:14.684Z,46.11
2019-05-13T09:05:44.361Z,47.82
2019-05-13T09:08:16.515Z,48.01
2019-05-13T09:10:46.797Z,47.55
2019-05-13T09:13:16.745Z,46.56
2019-05-13T09:15:47.999Z,45.37
2019-05-13T09:18:18.606Z,47.21
2019-05-13T09:20:48.411Z,45.87
2019-05-13T09:23:18.157Z,44.93
2019-05-13T09:25:47.939Z,43.50
2019-05-13T09:28:17.569Z,45.42
2019-05-13T09:30:48.513Z,43.96
2019-05-13T09:33:18.159Z,43.76
2019-05-13T09:35:50.115Z,43.83
2019-05-13T09:38:21.873Z,43.17
2019-05-13T09:40:53.053Z,43.66
2019-05-13T09:43:22.455Z,38.91
2019-05-13T09:45:52.660Z,40.06
2019-05-13T09:48:22.893Z,38.47
2019-05-13T09:50:52.933Z,38.21
2019-05-13T09:53:22.881Z,38.40
2019-05-13T09:55:52.822Z,39.74
2019-05-13T09:58:22.799Z,39.24
2019-05-13T10:00:53.298Z,37.09
2019-05-13T10:03:28.750Z,37.69
2019-05-13T10:05:54.464Z,40.34
2019-05-13T10:08:24.218Z,38.99
2019-05-13T10:10:53.916Z,41.32
2019-05-13T10:13:23.649Z,38.44
2019-05-13T10:15:53.365Z,40.36
2019-05-13T10:18:22.987Z,39.22
2019-05-13T10:20:58.709Z,37.77
2019-05-13T10:23:32.456Z,37.13
2019-05-13T10:26:05.236Z,38.05
2019-05-13T10:28:35.467Z,39.91
2019-05-13T10:31:05.875Z,39.20
2019-05-13T10:33:35.728Z,37.23
2019-05-13T10:36:05.757Z,38.44
2019-05-13T10:38:35.470Z,37.67
2019-05-13T10:41:05.426Z,38.88
2019-05-13T10:43:40.244Z,38.84
2019-05-13T10:46:06.703Z,38.48
2019-05-13T10:48:36.333Z,38.08
2019-05-13T10:51:06.188Z,38.29
2019-05-13T10:53:35.834Z,39.06
2019-05-13T10:56:05.674Z,38.87
2019-05-13T10:58:35.318Z,38.40
2019-05-13T11:01:05.518Z,37.52
2019-05-13T11:03:35.180Z,38.69
2019-05-13T11:06:05.219Z,37.49
2019-05-13T11:08:34.908Z,37.78
2019-05-13T11:11:04.768Z,38.63
2019-05-13T11:13:50.564Z,38.17
2019-05-13T11:16:06.619Z,38.64
2019-05-13T11:18:36.435Z,38.41
2019-05-13T11:21:06.244Z,34.88
2019-05-13T11:23:36.008Z,36.22
2019-05-13T11:26:05.789Z,37.08
2019-05-13T11:28:35.615Z,35.49
2019-05-13T11:31:05.413Z,37.73
2019-05-13T11:33:35.091Z,37.63
2019-05-13T11:36:04.811Z,36.46
2019-05-13T11:38:34.588Z,37.18
2019-05-13T11:41:04.879Z,35.97
2019-05-13T11:43:34.490Z,36.66
2019-05-13T11:46:04.247Z,35.87
2019-05-13T11:48:33.986Z,36.04
2019-05-13T11:51:04.480Z,36.04
2019-05-13T11:53:37.398Z,35.52
2019-05-13T11:56:05.891Z,33.58
2019-05-13T11:58:35.650Z,34.84
2019-05-13T12:01:06.554Z,33.68
2019-05-13T12:03:36.219Z,33.68
2019-05-13T12:06:06.005Z,34.08
2019-05-13T12:08:35.723Z,34.17
2019-05-13T12:11:06.681Z,35.13
2019-05-13T12:13:36.601Z,36.05
2019-05-13T12:16:06.569Z,36.23
2019-05-13T12:18:43.102Z,36.83
2019-05-13T12:21:07.736Z,35.83
2019-05-13T12:23:37.355Z,36.60
2019-05-13T12:26:07.069Z,34.81
2019-05-13T12:28:36.711Z,33.28
2019-05-13T12:31:06.494Z,33.35
2019-05-13T12:33:36.289Z,32.35
2019-05-13T12:36:06.127Z,32.19
2019-05-13T12:38:36.353Z,32.55
2019-05-13T12:41:06.490Z,33.53
2019-05-13T12:43:36.176Z,32.52
2019-05-13T12:46:06.156Z,32.18
2019-05-13T12:48:35.783Z,34.84
2019-05-13T12:51:05.575Z,35.04
2019-05-13T12:53:35.378Z,34.72
2019-05-13T12:56:05.546Z,34.39
2019-05-13T12:58:35.200Z,33.69
2019-05-13T13:01:05.132Z,33.13
2019-05-13T13:03:34.777Z,32.87
2019-05-13T13:06:25.075Z,32.51
2019-05-13T13:08:43.442Z,30.21
2019-05-13T13:11:07.446Z,31.32
2019-05-13T13:13:56.841Z,31.82
2019-05-13T13:16:08.842Z,32.63
2019-05-13T13:18:38.523Z,33.37
2019-05-13T13:21:08.560Z,32.79
2019-05-13T13:23:38.475Z,31.31
2019-05-13T13:26:15.395Z,31.29
2019-05-13T13:28:43.152Z,31.12
2019-05-13T13:31:12.942Z,31.59
2019-05-13T13:33:44.657Z,33.71
2019-05-13T13:36:15.880Z,31.85
2019-05-13T13:38:45.470Z,31.91
2019-05-13T13:41:22.218Z,32.44
2019-05-13T13:43:46.460Z,31.51
2019-05-13T13:46:36.979Z,31.95
2019-05-13T13:48:47.524Z,31.88
2019-05-13T13:51:17.159Z,31.41
2019-05-13T13:53:46.793Z,30.36
2019-05-13T13:56:16.411Z,28.72
2019-05-13T13:58:46.122Z,29.73
2019-05-13T14:01:19.923Z,30.66
2019-05-13T14:03:47.208Z,29.46
2019-05-13T14:07:08.129Z,30.13
2019-05-13T14:08:48.166Z,28.89
2019-05-13T14:11:17.847Z,29.49
2019-05-13T14:13:47.515Z,27.90
2019-05-13T14:16:28.029Z,28.14
2019-05-13T14:18:48.516Z,30.15
2019-05-13T14:21:18.169Z,31.21
2019-05-13T14:23:47.784Z,30.31
2019-05-13T14:26:17.515Z,28.95
2019-05-13T14:28:47.140Z,30.22
2019-05-13T14:31:16.764Z,29.89
2019-05-13T14:33:46.408Z,30.23
2019-05-13T14:36:16.206Z,29.37
2019-05-13T14:38:45.854Z,30.32
2019-05-13T14:41:15.544Z,29.61
2019-05-13T14:43:45.262Z,31.13
2019-05-13T14:46:14.880Z,30.47
2019-05-13T14:48:44.552Z,30.02
2019-05-13T14:51:14.441Z,28.68
2019-05-13T14:53:44.079Z,28.76
2019-05-13T14:56:14.546Z,26.78
2019-05-13T14:58:44.558Z,25.86
2019-05-13T15:01:19.855Z,26.04
2019-05-13T15:03:45.555Z,27.88
2019-05-13T15:06:15.269Z,27.91
2019-05-13T15:08:44.886Z,28.09
2019-05-13T15:11:14.548Z,27.98
2019-05-13T15:13:44.169Z,28.79
2019-05-13T15:16:13.814Z,28.53
2019-05-13T15:18:43.793Z,28.95
2019-05-13T15:21:13.414Z,28.27
2019-05-13T15:23:43.065Z,28.00
2019-05-13T15:26:12.705Z,28.82
2019-05-13T15:28:42.386Z,29.05
2019-05-13T15:31:12.213Z,29.94
2019-05-13T15:33:42.449Z,29.87
2019-05-13T15:36:12.167Z,30.16
2019-05-13T15:38:42.110Z,30.50
2019-05-13T15:41:15.427Z,31.03
2019-05-13T15:43:43.374Z,30.49
2019-05-13T15:46:13.566Z,31.08
2019-05-13T15:48:43.340Z,30.66
2019-05-13T15:51:13.112Z,32.52
2019-05-13T15:53:43.709Z,30.22
2019-05-13T15:56:13.458Z,29.79
2019-05-13T15:58:44.440Z,29.43
2019-05-13T16:01:14.598Z,29.50
2019-05-13T16:03:44.308Z,28.39
2019-05-13T16:06:13.933Z,28.23
2019-05-13T16:08:43.584Z,29.90
2019-05-13T16:11:13.352Z,27.90
2019-05-13T16:13:43.275Z,27.24
2019-05-13T16:16:12.969Z,27.68
2019-05-13T16:18:42.615Z,26.98
2019-05-13T16:21:12.300Z,26.62
2019-05-13T16:23:42.902Z,28.91
2019-05-13T16:26:12.719Z,29.14
2019-05-13T16:28:42.666Z,28.32
2019-05-13T16:31:12.276Z,28.90
2019-05-13T16:33:41.965Z,26.74
2019-05-13T16:36:12.757Z,27.51
2019-05-13T16:38:42.564Z,27.74
2019-05-13T16:41:12.651Z,26.31
2019-05-13T16:43:42.832Z,26.70
2019-05-13T16:46:12.534Z,27.13
2019-05-13T16:48:42.151Z,26.04
2019-05-13T16:51:12.758Z,27.32
2019-05-13T16:53:42.690Z,27.39
2019-05-13T16:56:25.703Z,26.40
2019-05-13T16:58:43.751Z,28.08
2019-05-13T17:01:13.399Z,27.50
2019-05-13T17:03:43.036Z,28.14
2019-05-13T17:06:12.901Z,30.66
2019-05-13T17:08:42.740Z,29.65
2019-05-13T17:11:12.525Z,30.25
2019-05-13T17:13:42.741Z,30.39
2019-05-13T17:16:12.361Z,30.71
2019-05-13T17:18:42.008Z,31.95
2019-05-13T17:21:11.633Z,31.78
2019-05-13T17:23:41.847Z,30.76
2019-05-13T17:26:11.855Z,30.98
2019-05-13T17:28:41.913Z,33.41
2019-05-13T17:31:11.816Z,31.61
2019-05-13T17:33:41.625Z,32.86
2019-05-13T17:36:12.395Z,32.62
2019-05-13T17:38:42.729Z,32.65
2019-05-13T17:41:12.419Z,32.34
2019-05-13T17:43:42.139Z,34.01
2019-05-13T17:46:11.784Z,34.30
2019-05-13T17:48:41.748Z,34.44
2019-05-13T17:51:13.139Z,33.00
2019-05-13T17:53:42.998Z,34.75
2019-05-13T17:56:12.616Z,34.55
2019-05-13T17:58:42.269Z,34.62
2019-05-13T18:01:12.134Z,33.57
2019-05-13T18:03:42.393Z,35.12
2019-05-13T18:06:14.334Z,35.18
2019-05-13T18:08:46.508Z,34.97
2019-05-13T18:11:21.726Z,35.79
2019-05-13T18:13:51.707Z,35.59
2019-05-13T18:16:24.183Z,35.75
2019-05-13T18:18:54.275Z,34.07
2019-05-13T18:21:24.305Z,35.61
2019-05-13T18:23:54.491Z,35.41
2019-05-13T18:26:24.474Z,35.76
2019-05-13T18:28:54.320Z,37.34
2019-05-13T18:31:25.014Z,35.52
2019-05-13T18:33:55.370Z,36.41
2019-05-13T18:36:25.464Z,35.78
2019-05-13T18:38:55.209Z,36.16
2019-05-13T18:41:25.463Z,36.23
2019-05-13T18:43:55.429Z,35.57
2019-05-13T18:46:25.753Z,36.33
2019-05-13T18:48:58.915Z,36.75
2019-05-13T18:51:28.030Z,36.21
2019-05-13T18:53:57.643Z,36.07
2019-05-13T18:56:27.446Z,36.13
2019-05-13T18:58:57.276Z,35.62
2019-05-13T19:01:26.963Z,36.50
2019-05-13T19:03:57.338Z,36.57
2019-05-13T19:06:27.050Z,36.44
2019-05-13T19:08:56.756Z,37.46
2019-05-13T19:11:26.495Z,36.87
2019-05-13T19:13:56.251Z,36.95
2019-05-13T19:16:25.995Z,36.84
2019-05-13T19:18:55.867Z,37.28
2019-05-13T19:21:25.536Z,37.62
2019-05-13T19:23:55.303Z,38.37
2019-05-13T19:26:25.029Z,38.00
2019-05-13T19:28:54.822Z,38.82
2019-05-13T19:31:24.881Z,38.82
2019-05-13T19:33:54.839Z,38.32
2019-05-13T19:36:24.925Z,39.00
2019-05-13T19:38:54.793Z,38.89
2019-05-13T19:41:24.425Z,39.23
2019-05-13T19:43:54.118Z,38.40
2019-05-13T19:46:25.731Z,39.87
2019-05-13T19:48:55.250Z,40.02
2019-05-13T19:51:28.188Z,39.73
2019-05-13T19:53:56.582Z,40.11
2019-05-13T19:56:26.371Z,40.08
2019-05-13T19:58:56.079Z,40.02
2019-05-13T20:01:25.718Z,40.44
2019-05-13T20:03:55.591Z,39.96
2019-05-13T20:06:25.315Z,39.53
2019-05-13T20:08:55.012Z,38.79
2019-05-13T20:11:24.720Z,41.23
2019-05-13T20:13:54.448Z,41.21
2019-05-13T20:16:24.398Z,41.39
2019-05-13T20:18:54.113Z,42.40
2019-05-13T20:21:23.884Z,41.96
2019-05-13T20:23:54.726Z,42.39
2019-05-13T20:26:24.588Z,42.20
2019-05-13T20:28:54.545Z,43.34
2019-05-13T20:31:24.346Z,43.46
2019-05-13T20:33:54.344Z,43.44
2019-05-13T20:36:24.095Z,43.56
2019-05-13T20:38:53.756Z,43.55
2019-05-13T20:41:23.426Z,44.43
2019-05-13T20:43:53.278Z,44.13
2019-05-13T20:46:23.341Z,44.21
2019-05-13T20:48:53.755Z,44.21
2019-05-13T20:51:27.160Z,44.32
2019-05-13T20:53:57.169Z,43.89
2019-05-13T20:56:27.520Z,44.41
2019-05-13T20:58:57.649Z,44.41
2019-05-13T21:01:27.647Z,43.98
2019-05-13T21:03:57.488Z,43.91
2019-05-13T21:06:27.285Z,44.11
2019-05-13T21:08:56.885Z,44.82
2019-05-13T21:11:26.525Z,45.76
2019-05-13T21:13:56.145Z,45.75
2019-05-13T21:16:25.882Z,45.44
2019-05-13T21:18:55.511Z,46.35
2019-05-13T21:21:25.210Z,47.45
2019-05-13T21:23:54.860Z,47.07
2019-05-13T21:26:24.646Z,46.65
2019-05-13T21:28:54.288Z,47.03
2019-05-13T21:31:23.984Z,47.33
2019-05-13T21:33:53.631Z,47.26
2019-05-13T21:36:23.318Z,46.48
2019-05-13T21:38:52.961Z,47.01
2019-05-13T21:41:22.584Z,46.01
2019-05-13T21:43:52.225Z,46.43
2019-05-13T21:46:21.924Z,47.21
2019-05-13T21:48:52.065Z,48.24
2019-05-13T21:51:22.292Z,47.40
2019-05-13T21:53:52.110Z,47.18
2019-05-13T21:56:23.189Z,47.09
2019-05-13T21:58:53.093Z,47.79
2019-05-13T22:01:23.405Z,47.63
2019-05-13T22:03:53.154Z,47.92
2019-05-13T22:06:22.806Z,47.94
2019-05-13T22:08:52.422Z,48.19
2019-05-13T22:11:22.331Z,47.81
2019-05-13T22:13:52.071Z,47.85
2019-05-13T22:16:21.744Z,48.53
2019-05-13T22:18:52.401Z,49.24
2019-05-13T22:21:22.193Z,49.94
2019-05-13T22:23:51.933Z,49.62
2019-05-13T22:26:22.246Z,49.99
2019-05-13T22:28:52.034Z,50.29
2019-05-13T22:31:22.242Z,50.75
2019-05-13T22:33:52.048Z,51.15
2019-05-13T22:36:21.679Z,50.57
2019-05-13T22:38:51.793Z,50.54
2019-05-13T22:41:22.176Z,50.87
2019-05-13T22:43:58.215Z,51.01
2019-05-13T22:46:23.401Z,50.17
2019-05-13T22:48:53.020Z,49.58
2019-05-13T22:51:22.674Z,50.08
2019-05-13T22:53:52.286Z,50.65
2019-05-13T22:56:22.363Z,51.44
2019-05-13T22:58:52.126Z,51.07
2019-05-13T23:01:22.007Z,50.92
2019-05-13T23:03:51.642Z,50.92
2019-05-13T23:06:21.710Z,50.83
2019-05-13T23:08:51.531Z,49.75
2019-05-13T23:11:21.889Z,49.47
2019-05-13T23:13:51.645Z,50.13
2019-05-13T23:16:22.263Z,48.41
2019-05-13T23:18:51.998Z,50.00
2019-05-13T23:21:21.622Z,49.11
2019-05-13T23:23:51.493Z,49.22
2019-05-13T23:26:21.262Z,49.00
2019-05-13T23:28:52.229Z,50.16
2019-05-13T23:31:22.007Z,49.55
2019-05-13T23:33:51.733Z,50.83
2019-05-13T23:36:21.422Z,52.69
2019-05-13T23:38:51.724Z,53.64
2019-05-13T23:41:21.841Z,53.88
2019-05-13T23:43:51.652Z,54.15
2019-05-13T23:46:22.284Z,54.31
2019-05-13T23:48:52.184Z,54.56
2019-05-13T23:51:21.896Z,54.94
2019-05-13T23:53:51.509Z,54.97
2019-05-13T23:56:21.839Z,55.43
2019-05-13T23:58:52.031Z,55.67
